Reklama

Seznam meteostanic a jejich METAR

Vyhledat místa podle abecedy:
A B C D E F G H I J K L M N O P Q R S T U V W X Y Z

Filtrovat:

ID stanice:
a/nebo
Název místa (fulltext):
 
Místo (ID)Naposledy načteno 
Faro (LPFR) 06.12.2019 00:00 UTC Zobrazit METAR
LPFR 060000Z 01008KT CAVOK 14/07 Q1016
Florence (LIRQ) 05.12.2019 23:50 UTC Zobrazit METAR
LIRQ 052350Z 21003KT 9999 BKN080 07/05 Q1024
Foggia, Gino Lisa (LIBF) 05.12.2019 14:50 UTC Zobrazit METAR
LIBF 051450Z 31003KT 9000 OVC018 10/08 Q1025
Fort de France (TFFF) 06.12.2019 00:00 UTC Zobrazit METAR
TFFF 060000Z AUTO 10008KT 9999 FEW030 27/22 Q1015
Frankfurt/ Main (EDDF) 05.12.2019 05:50 UTC Zobrazit METAR
EDDF 050550Z 16002KT 9999 FEW001 M04/M05 Q1022 BECMG 0400 FZFG VV001
Freetown (GFLL) 05.12.2019 23:00 UTC Zobrazit METAR
GFLL 052300Z 25010KT 7000 -HZ SCT013 28/23 Q1011
Funafuti (NGFU) 04.12.2019 17:00 UTC Zobrazit METAR
NGFU 041700Z 10010KT 9999 FEW020 29/25 Q////
Reklama

Počasí na Váš email

Emaily jsou bez reklamy a bez spamu



Odhlásit newsletter

Reklama


Lunární kalendář

  • 12.12.
  • 19.12.
  • 26.12.
  • 03.01.



Reklama


Reklama
Povinné ručení
Reklama



Reklama